Time;durP1;ratioP1;P1;durP2;ratioP2;P2;SDS_P1;SDS_P2;PMS_P1;PMS_P2;Temp;Humidity;BMP_temperature;BMP_pressure;BME280_temperature;BME280_humidity;BME280_pressure;Samples;Min_cycle;Max_cycle;Signal;HPM_P1;HPM_P2
2022/08/22 00:01:19;;;;;;;;;;;;;;;17.48;66.53;97913.06;5039098;28;19929;-61
2022/08/22 00:03:50;;;;;;;;;;;;;;;17.47;66.43;97925.16;5021879;28;19925;-62
2022/08/22 00:06:20;;;;;;;;;;;;;;;17.40;66.54;97923.06;5024273;28;20043;-62
2022/08/22 00:08:51;;;;;;;;;;;;;;;17.49;66.21;97917.38;5028722;28;19921;-62
2022/08/22 00:11:28;;;;;;;;;;;;;;;17.32;67.15;97920.50;5027581;28;19927;-62
2022/08/22 00:13:59;;;;;;;;;;;;;;;17.14;68.04;97928.28;5026487;28;19921;-62
2022/08/22 00:16:31;;;;;;;;;;;;;;;17.27;67.43;97919.63;5011003;28;19921;-62
2022/08/22 00:19:07;;;;;;;;;;;;;;;17.26;67.17;97923.53;5039112;28;19921;-62
2022/08/22 00:21:36;;;;;;;;;;;;;;;17.37;66.88;97917.50;5025890;28;19976;-62
2022/08/22 00:24:06;;;;;;;;;;;;;;;17.17;67.47;97916.63;5028659;28;19929;-61
2022/08/22 00:26:39;;;;;;;;;;;;;;;17.23;67.51;97921.47;5028444;28;19920;-61
2022/08/22 00:29:17;;;;;;;;;;;;;;;17.18;67.71;97921.75;5045427;28;20019;-62
2022/08/22 00:31:46;;;;;;;;;;;;;;;17.28;67.47;97923.97;5026973;28;20004;-61
2022/08/22 00:34:17;;;;;;;;;;;;;;;17.24;67.80;97920.31;5032755;28;19960;-61
2022/08/22 00:36:48;;;;;;;;;;;;;;;17.16;67.77;97923.25;5066786;28;19920;-61
2022/08/22 00:39:17;;;;;;;;;;;;;;;17.28;67.51;97925.91;5065484;28;19963;-61
2022/08/22 00:41:50;;;;;;;;;;;;;;;17.21;67.70;97932.03;5060967;28;20385;-61
2022/08/22 00:44:45;;;;;;;;;;;;;;;17.23;67.73;97918.72;5060896;28;20349;-62
2022/08/22 00:47:46;;;;;;;;;;;;;;;17.12;68.24;97928.66;5023756;28;19928;-64
2022/08/22 00:50:25;;;;;;;;;;;;;;;17.12;68.07;97927.84;5005847;28;19934;-62
2022/08/22 00:53:00;;;;;;;;;;;;;;;17.06;68.87;97926.53;5000618;28;19926;-62
2022/08/22 00:55:34;;;;;;;;;;;;;;;17.16;68.13;97926.00;5007107;28;20012;-61
2022/08/22 00:58:16;;;;;;;;;;;;;;;17.22;67.84;97922.63;4982898;28;19979;-62
2022/08/22 01:00:45;;;;;;;;;;;;;;;17.02;68.55;97924.47;4988442;28;20306;-62
2022/08/22 01:03:31;;;;;;;;;;;;;;;17.01;68.59;97922.09;4988434;28;19925;-62
2022/08/22 01:06:07;;;;;;;;;;;;;;;17.08;68.43;97915.97;5007753;28;19925;-61
2022/08/22 01:08:39;;;;;;;;;;;;;;;17.14;68.32;97923.59;5005109;28;19926;-62
2022/08/22 01:11:14;;;;;;;;;;;;;;;17.17;68.04;97930.34;5004883;28;19930;-62
2022/08/22 01:14:06;;;;;;;;;;;;;;;17.13;68.08;97923.97;5004974;28;20449;-62
2022/08/22 01:16:41;;;;;;;;;;;;;;;17.10;68.25;97925.47;5003140;28;19925;-61
2022/08/22 01:19:19;;;;;;;;;;;;;;;17.13;68.06;97916.50;4987479;28;19925;-62
2022/08/22 01:21:59;;;;;;;;;;;;;;;17.03;68.74;97919.78;5034165;28;19933;-61
2022/08/22 01:27:43;;;;;;;;;;;;;;;16.86;69.25;97912.69;5052915;28;19939;-61
2022/08/22 01:30:42;;;;;;;;;;;;;;;16.87;69.33;97910.75;5062917;28;19931;-62
2022/08/22 01:33:16;;;;;;;;;;;;;;;16.97;68.60;97910.22;5069177;28;20396;-62
2022/08/22 01:36:09;;;;;;;;;;;;;;;16.78;69.34;97908.19;5062776;28;19939;-62
2022/08/22 01:38:52;;;;;;;;;;;;;;;16.54;70.23;97911.81;5045692;28;19932;-61
2022/08/22 01:41:29;;;;;;;;;;;;;;;16.70;69.74;97912.63;5029709;28;19963;-61
2022/08/22 01:44:08;;;;;;;;;;;;;;;16.66;70.02;97906.25;5044386;28;19929;-61
2022/08/22 01:46:43;;;;;;;;;;;;;;;16.63;69.77;97911.66;5043137;28;19929;-61
2022/08/22 01:49:15;;;;;;;;;;;;;;;16.37;71.12;97917.59;5043796;28;19931;-61
2022/08/22 01:51:47;;;;;;;;;;;;;;;16.32;71.26;97917.84;5046280;28;19929;-62
2022/08/22 01:54:24;;;;;;;;;;;;;;;16.42;70.79;97915.41;5045358;28;19925;-62
2022/08/22 01:56:58;;;;;;;;;;;;;;;16.45;70.65;97920.19;5045348;28;19925;-62
2022/08/22 01:59:30;;;;;;;;;;;;;;;16.44;70.67;97917.78;5039617;28;19925;-61
2022/08/22 02:02:07;;;;;;;;;;;;;;;16.25;71.38;97912.97;5041321;28;20023;-62
2022/08/22 02:04:37;;;;;;;;;;;;;;;16.22;71.57;97919.94;5043947;28;19925;-62
2022/08/22 02:07:07;;;;;;;;;;;;;;;16.37;70.88;97918.41;5049911;28;19947;-62
2022/08/22 02:09:38;;;;;;;;;;;;;;;16.43;70.67;97916.22;5051654;28;19968;-61
2022/08/22 02:12:17;;;;;;;;;;;;;;;16.53;70.16;97921.19;5048407;28;19929;-61
2022/08/22 02:14:57;;;;;;;;;;;;;;;16.56;70.06;97923.22;5047744;28;19929;-61
2022/08/22 02:17:28;;;;;;;;;;;;;;;16.44;70.45;97918.59;5058515;28;20313;-61
2022/08/22 02:19:57;;;;;;;;;;;;;;;16.54;70.09;97919.25;5049062;28;20020;-61
2022/08/22 02:22:28;;;;;;;;;;;;;;;16.59;69.73;97916.25;5048567;28;20301;-61
2022/08/22 02:25:00;;;;;;;;;;;;;;;16.55;69.97;97926.31;5048731;28;19924;-61
2022/08/22 02:27:33;;;;;;;;;;;;;;;16.30;71.14;97920.13;5052494;28;20407;-61
2022/08/22 02:30:05;;;;;;;;;;;;;;;16.38;70.54;97911.75;5045965;28;19929;-62
2022/08/22 02:32:36;;;;;;;;;;;;;;;16.39;70.33;97912.56;5051216;28;19976;-62
2022/08/22 02:35:06;;;;;;;;;;;;;;;16.41;70.41;97921.25;5038916;28;20016;-62
2022/08/22 02:37:36;;;;;;;;;;;;;;;16.47;69.97;97917.91;5027743;28;19930;-61
2022/08/22 02:40:06;;;;;;;;;;;;;;;16.46;70.23;97921.00;5026288;28;20679;-61
2022/08/22 02:42:38;;;;;;;;;;;;;;;16.41;70.38;97922.03;5028595;28;19925;-61
2022/08/22 02:45:12;;;;;;;;;;;;;;;16.43;70.08;97924.44;5026215;28;19925;-61
2022/08/22 02:47:49;;;;;;;;;;;;;;;16.42;70.21;97922.84;5033013;28;19924;-62
2022/08/22 02:50:21;;;;;;;;;;;;;;;16.46;69.95;97929.22;5024818;28;19933;-61
2022/08/22 02:52:54;;;;;;;;;;;;;;;16.46;70.14;97930.03;5025972;28;19968;-62
2022/08/22 02:55:29;;;;;;;;;;;;;;;16.42;70.30;97923.63;5030370;28;19925;-62
2022/08/22 02:58:01;;;;;;;;;;;;;;;16.42;70.21;97928.31;5026492;28;20343;-61
2022/08/22 03:00:29;;;;;;;;;;;;;;;16.36;70.36;97927.78;5031282;28;19939;-61
2022/08/22 03:03:02;;;;;;;;;;;;;;;16.31;70.77;97919.81;5029142;28;20270;-61
2022/08/22 03:05:40;;;;;;;;;;;;;;;16.27;70.70;97923.59;5035170;28;19929;-62
2022/08/22 03:08:11;;;;;;;;;;;;;;;16.15;71.32;97927.97;5027565;28;19940;-61
2022/08/22 03:10:44;;;;;;;;;;;;;;;16.26;70.92;97925.53;5040645;28;19925;-61
2022/08/22 03:13:13;;;;;;;;;;;;;;;16.20;71.04;97929.66;5027294;28;19925;-61
2022/08/22 03:15:45;;;;;;;;;;;;;;;16.07;71.33;97928.88;5026433;28;20401;-62
2022/08/22 03:18:16;;;;;;;;;;;;;;;15.82;72.40;97930.91;5040471;28;19929;-61
2022/08/22 03:20:46;;;;;;;;;;;;;;;15.75;72.96;97935.34;5029345;28;19961;-61
2022/08/22 03:23:16;;;;;;;;;;;;;;;15.77;72.81;97930.34;5026104;28;19968;-62
2022/08/22 03:25:46;;;;;;;;;;;;;;;15.88;72.46;97934.19;5025130;28;19926;-62
2022/08/22 03:28:21;;;;;;;;;;;;;;;15.80;72.30;97932.38;5043182;28;19972;-62
2022/08/22 03:30:56;;;;;;;;;;;;;;;15.48;73.63;97934.88;5030925;28;19925;-61
2022/08/22 03:33:27;;;;;;;;;;;;;;;15.41;74.06;97935.47;5029186;28;19929;-61
2022/08/22 03:35:58;;;;;;;;;;;;;;;15.61;73.40;97941.97;5051017;28;19925;-61
2022/08/22 03:38:28;;;;;;;;;;;;;;;15.68;73.13;97933.19;5068588;28;19928;-61
2022/08/22 03:41:07;;;;;;;;;;;;;;;15.80;72.78;97935.13;5064545;28;20054;-61
2022/08/22 03:43:50;;;;;;;;;;;;;;;15.92;72.33;97935.88;5066749;28;19925;-62
2022/08/22 03:46:26;;;;;;;;;;;;;;;16.00;71.75;97939.66;5061917;28;20428;-61
2022/08/22 03:49:08;;;;;;;;;;;;;;;15.51;73.65;97936.94;5070877;28;19924;-61
2022/08/22 03:51:40;;;;;;;;;;;;;;;15.67;73.22;97940.63;5065738;28;20391;-61
2022/08/22 03:54:33;;;;;;;;;;;;;;;15.71;72.87;97948.91;5063293;28;20027;-62
2022/08/22 03:57:25;;;;;;;;;;;;;;;15.84;72.18;97947.78;5065161;28;20344;-61
2022/08/22 04:00:01;;;;;;;;;;;;;;;15.36;73.90;97951.31;4998453;28;19936;-62
2022/08/22 04:02:37;;;;;;;;;;;;;;;15.27;74.28;97953.34;5065934;28;19927;-61
2022/08/22 04:05:31;;;;;;;;;;;;;;;15.46;73.71;97948.13;5068611;28;19924;-63
2022/08/22 04:08:07;;;;;;;;;;;;;;;15.51;73.31;97952.56;5068596;28;19925;-61
2022/08/22 04:10:39;;;;;;;;;;;;;;;15.55;73.29;97951.53;5066793;28;19925;-62
2022/08/22 04:13:31;;;;;;;;;;;;;;;15.78;72.43;97953.84;5053265;28;19921;-62
2022/08/22 04:20:08;;;;;;;448.33;173.77;;;;;;;15.78;72.16;97960.13;5046173;28;20448;-62
2022/08/22 04:23:00;;;;;;;431.00;167.10;;;;;;;15.80;72.01;97963.31;5030737;28;20456;-62
2022/08/22 04:25:35;;;;;;;447.60;174.27;;;;;;;15.71;72.20;97966.19;5059506;28;20403;-61
2022/08/22 04:28:06;;;;;;;402.55;160.00;;;;;;;15.59;72.80;97966.13;5044065;28;20465;-62
2022/08/22 04:31:05;;;;;;;398.65;159.05;;;;;;;15.59;72.48;97966.13;5062302;28;21084;-62
2022/08/22 04:33:34;;;;;;;;;;;;;;;15.62;72.71;97967.41;5064193;28;20469;-61
2022/08/22 04:36:05;;;;;;;;;;;;;;;15.57;72.72;97960.22;5032395;28;19935;-61
2022/08/22 04:38:34;;;;;;;;;;;;;;;15.68;72.54;97963.31;5022377;28;19947;-62
2022/08/22 04:41:05;;;;;;;;;;;;;;;15.67;72.38;97959.78;5029743;28;19956;-62
2022/08/22 04:43:34;;;;;;;;;;;;;;;15.69;72.27;97962.16;5026667;28;20324;-62
2022/08/22 04:46:06;;;;;;;;;;;;;;;15.65;72.33;97967.53;5026095;28;19925;-62
2022/08/22 04:48:35;;;;;;;;;;;;;;;15.45;72.77;97966.50;5026251;28;19971;-63
2022/08/22 04:51:05;;;;;;;;;;;;;;;15.46;72.92;97968.09;5027100;28;20523;-63
2022/08/22 04:53:40;;;;;;;;;;;;;;;15.29;73.62;97970.25;5036787;28;19960;-62
2022/08/22 04:56:11;;;;;;;;;;;;;;;15.42;73.13;97969.91;5027490;28;19948;-62
2022/08/22 04:58:45;;;;;;;;;;;;;;;15.41;73.05;97959.31;5023986;28;19925;-62
2022/08/22 05:01:19;;;;;;;;;;;;;;;15.43;72.99;97976.16;5026760;28;19921;-62
2022/08/22 05:03:50;;;;;;;;;;;;;;;15.33;73.29;97977.41;5028329;28;19929;-61
2022/08/22 05:06:20;;;;;;;;;;;;;;;15.41;73.05;97979.25;5023188;28;19921;-62
2022/08/22 05:08:49;;;;;;;;;;;;;;;15.55;72.64;97984.38;5025215;28;20304;-62
2022/08/22 05:11:22;;;;;;;;;;;;;;;15.60;72.42;97986.91;5027734;28;19921;-62
2022/08/22 05:13:52;;;;;;;;;;;;;;;15.74;71.82;97983.06;5025276;28;19929;-62
2022/08/22 05:16:21;;;;;;;;;;;;;;;15.74;72.24;97989.34;5023477;28;19979;-62
2022/08/22 05:21:51;;;;;;;;;;;;;;;15.04;74.44;97989.34;5023642;28;20408;-63
2022/08/22 05:24:20;;;;;;;;;;;;;;;15.12;74.15;97993.13;5038933;28;19935;-61
2022/08/22 05:26:49;;;;;;;;;;;;;;;15.33;73.72;97993.03;5043324;28;19929;-62
2022/08/22 05:29:21;;;;;;;;;;;;;;;15.39;73.44;97997.16;5023593;28;20012;-62
2022/08/22 05:31:50;;;;;;;;;;;;;;;15.57;72.80;97997.75;5024290;28;20023;-62
2022/08/22 05:34:22;;;;;;;;;;;;;;;15.51;73.02;97999.91;5026114;28;19960;-62
2022/08/22 05:36:51;;;;;;;;;;;;;;;15.41;73.48;98006.63;5026904;28;19975;-62
2022/08/22 05:39:20;;;;;;;;;;;;;;;15.43;73.32;98006.28;5044988;28;20377;-61
2022/08/22 05:41:48;;;;;;;;;;;;;;;15.61;72.88;98004.94;5033382;28;19928;-61
2022/08/22 05:44:19;;;;;;;;;;;;;;;15.74;72.42;98004.97;5033193;28;19921;-62
2022/08/22 05:46:48;;;;;;;;;;;;;;;15.62;72.28;98012.00;5031187;28;20496;-62
2022/08/22 05:49:19;;;;;;;;;;;;;;;15.88;71.37;98008.97;5024896;28;19928;-61
2022/08/22 05:51:48;;;;;;;;;;;;;;;16.01;70.48;98001.53;5025500;28;19963;-62
2022/08/22 05:54:21;;;;;;;;;;;;;;;16.05;70.50;98002.44;5033648;28;19921;-62
2022/08/22 05:57:04;;;;;;;;;;;;;;;16.17;70.11;98007.09;5030438;28;20317;-62
2022/08/22 05:59:35;;;;;;;;;;;;;;;16.31;69.48;97999.31;5030882;28;19928;-62
2022/08/22 06:02:03;;;;;;;;;;;;;;;16.41;69.33;98001.56;5031846;28;19971;-61
2022/08/22 06:04:33;;;;;;;;;;;;;;;16.55;68.76;97997.63;5032994;28;19928;-61
2022/08/22 06:07:06;;;;;;;6.70;3.47;;;;;;;16.50;69.02;98002.19;5047821;28;20479;-62
2022/08/22 06:09:54;;;;;;;5.47;3.40;;;;;;;16.63;68.92;98008.47;5046644;28;20445;-61
2022/08/22 06:12:26;;;;;;;4.78;3.08;;;;;;;16.73;68.66;98015.44;5025392;28;20519;-62
2022/08/22 06:15:00;;;;;;;6.55;3.60;;;;;;;16.74;68.47;98011.53;5029412;28;20418;-62
2022/08/22 06:17:31;;;;;;;5.47;3.28;;;;;;;16.82;67.73;98007.03;5030436;28;20830;-61
2022/08/22 06:20:02;;;;;;;8.50;3.38;;;;;;;16.88;67.29;98009.16;5027569;28;20431;-62
2022/08/22 06:22:37;;;;;;;144.83;82.67;;;;;;;16.89;67.31;98010.00;5032648;28;20422;-62
2022/08/22 06:25:13;;;;;;;6.07;3.60;;;;;;;17.00;67.07;98008.34;5011647;28;20415;-62
2022/08/22 06:27:41;;;;;;;27.97;19.63;;;;;;;16.79;66.86;98005.81;5029937;28;20427;-62
2022/08/22 06:30:13;;;;;;;37.50;29.55;;;;;;;16.33;68.09;98018.94;5029604;28;20791;-61
2022/08/22 06:32:44;;;;;;;55.45;43.28;;;;;;;16.57;68.20;98017.28;5026275;28;20414;-62
2022/08/22 06:38:59;;;;;;;16.95;15.45;;;;;;;17.04;66.65;98017.44;5028076;28;20422;-62
2022/08/22 06:41:31;;;;;;;7.78;3.80;;;;;;;16.78;66.31;98020.66;5045503;28;20424;-62
2022/08/22 06:44:00;;;;;;;6.45;3.05;;;;;;;16.83;66.69;98012.19;5038733;28;20409;-62
2022/08/22 06:46:29;;;;;;;12.70;10.50;;;;;;;16.84;65.94;98010.25;5028327;28;20924;-62
2022/08/22 06:48:59;;;;;;;6.97;3.30;;;;;;;16.86;65.85;98013.44;5033760;28;20448;-61
2022/08/22 06:51:28;;;;;;;6.93;3.40;;;;;;;17.10;65.63;98013.31;5028170;28;20418;-61
2022/08/22 06:54:00;;;;;;;105.70;77.72;;;;;;;17.22;65.14;98009.69;5023398;28;20740;-62
2022/08/22 06:56:33;;;;;;;7.90;3.22;;;;;;;17.57;64.84;98009.78;5024222;28;20421;-61
2022/08/22 06:59:03;;;;;;;6.45;3.35;;;;;;;17.74;64.76;98012.22;5026679;28;20534;-61
2022/08/22 07:01:34;;;;;;;6.13;3.53;;;;;;;17.76;63.92;98012.66;5030577;28;20539;-61
2022/08/22 07:04:07;;;;;;;6.82;3.58;;;;;;;17.93;63.60;98005.97;5028210;28;20411;-61
2022/08/22 07:06:40;;;;;;;5.77;3.30;;;;;;;17.96;63.02;98012.72;5023020;28;20510;-62
2022/08/22 07:09:19;;;;;;;7.45;3.25;;;;;;;18.26;62.71;98013.78;5028477;28;20501;-61
2022/08/22 07:11:51;;;;;;;8.95;3.10;;;;;;;18.38;62.17;98012.09;5024883;28;20419;-62
2022/08/22 07:14:26;;;;;;;6.57;2.83;;;;;;;18.52;61.04;98004.94;5028975;28;20407;-62
2022/08/22 07:16:56;;;;;;;5.50;2.70;;;;;;;18.74;61.26;98011.69;5028978;28;20493;-61
2022/08/22 07:19:30;;;;;;;6.15;3.40;;;;;;;18.69;59.03;98009.22;5026121;28;20432;-62
2022/08/22 07:22:00;;;;;;;6.40;2.72;;;;;;;18.95;59.17;98016.03;5025866;28;20428;-62
2022/08/22 07:24:31;;;;;;;;;;;;;;;18.80;59.02;98010.25;5023066;28;20424;-62
2022/08/22 07:27:29;;;;;;;;;;;;;;;18.82;58.27;98007.94;5027009;28;20705;-61
2022/08/22 07:30:00;;;;;;;;;;;;;;;19.11;58.78;98003.75;5027508;28;19921;-61
2022/08/22 07:32:28;;;;;;;;;;;;;;;19.30;57.67;98004.91;5025282;28;19967;-63
2022/08/22 07:35:02;;;;;;;;;;;;;;;19.46;58.38;98008.31;5031137;28;19925;-62
2022/08/22 07:37:35;;;;;;;;;;;;;;;19.61;56.90;98004.69;5066808;28;20007;-61
2022/08/22 07:40:04;;;;;;;;;;;;;;;19.72;57.96;98004.84;5069139;28;20433;-62
2022/08/22 07:42:35;;;;;;;;;;;;;;;19.86;57.02;98004.25;5046510;28;20771;-62
2022/08/22 07:45:07;;;;;;;;;;;;;;;19.86;55.66;97998.75;5067950;28;19925;-61
2022/08/22 07:47:43;;;;;;;;;;;;;;;19.96;54.93;98008.34;5062701;28;19921;-63
2022/08/22 07:50:18;;;;;;;;;;;;;;;20.01;55.80;98005.28;5070522;28;19929;-62
2022/08/22 07:52:46;;;;;;;6.67;2.50;;;;;;;20.03;55.23;98006.53;5067859;28;21002;-62
2022/08/22 07:55:16;;;;;;;;;;;;;;;20.20;54.35;98007.16;5048961;28;20494;-62
2022/08/22 07:57:46;;;;;;;;;;;;;;;20.08;53.75;98002.63;5061667;28;19921;-62
2022/08/22 08:00:15;;;;;;;;;;;;;;;20.20;54.68;98007.94;5050872;28;19989;-62
2022/08/22 08:02:44;;;;;;;;;;;;;;;20.37;53.58;98004.63;5065488;28;20363;-62
2022/08/22 08:08:08;;;;;;;5.10;2.00;;;;;;;20.45;50.67;98002.75;5043967;28;20420;-61
2022/08/22 08:10:42;;;;;;;4.00;1.80;;;;;;;20.56;49.99;98005.69;5063028;28;20453;-62
2022/08/22 08:13:19;;;;;;;5.70;1.90;;;;;;;20.73;49.99;97996.84;5050962;28;20416;-62
2022/08/22 08:15:49;;;;;;;5.13;2.07;;;;;;;20.87;48.18;97997.00;5062668;28;20407;-61
2022/08/22 08:18:22;;;;;;;3.15;1.65;;;;;;;20.96;46.39;98005.00;5062748;28;20429;-61
2022/08/22 08:20:51;;;;;;;4.63;1.90;;;;;;;21.03;47.95;97998.75;5066510;28;20481;-62
2022/08/22 08:23:20;;;;;;;4.47;1.67;;;;;;;20.91;46.44;98002.56;5066435;28;20877;-62
2022/08/22 08:25:58;;;;;;;7.35;1.80;;;;;;;21.07;46.23;97999.56;5044003;28;20402;-62
2022/08/22 08:28:33;;;;;;;5.60;1.77;;;;;;;21.22;46.00;98000.53;5061365;28;20434;-62
2022/08/22 08:31:07;;;;;;;3.72;1.75;;;;;;;21.39;46.16;98000.72;5046109;28;21000;-62
2022/08/22 08:33:38;;;;;;;5.28;1.60;;;;;;;21.58;46.46;98001.69;5049199;28;20416;-63
2022/08/22 08:36:11;;;;;;;5.50;1.70;;;;;;;21.56;46.46;97998.50;5047326;28;20412;-61
2022/08/22 08:38:45;;;;;;;5.38;1.52;;;;;;;21.42;46.53;98004.72;5062677;28;20412;-63
2022/08/22 08:41:40;;;;;;;6.03;2.03;;;;;;;21.50;45.11;98000.03;5047036;28;20449;-63
2022/08/22 08:44:21;;;;;;;4.80;2.00;;;;;;;21.67;45.73;97991.09;5045513;28;20906;-61
2022/08/22 08:46:56;;;;;;;;;;;;;;;21.76;45.60;97997.09;5044590;28;20916;-61
2022/08/22 08:49:36;;;;;;;3.50;1.80;;;;;;;21.82;44.68;97990.03;5065742;28;20507;-62
2022/08/22 08:52:14;;;;;;;;;;;;;;;21.39;45.02;98000.72;5064446;28;20416;-62
2022/08/22 08:54:45;;;;;;;;;;;;;;;21.72;44.67;97985.19;5065598;28;20483;-62
2022/08/22 08:57:15;;;;;;;;;;;;;;;22.11;45.09;97996.59;5048963;28;19970;-63
2022/08/22 08:59:46;;;;;;;;;;;;;;;22.12;44.78;97998.19;5047133;28;20447;-63
2022/08/22 09:02:29;;;;;;;;;;;;;;;22.20;43.60;97996.22;5059974;28;19920;-62
2022/08/22 09:05:57;;;;;;;6.03;1.85;;;;;;;22.34;42.45;97990.78;5061110;28;20496;-61
2022/08/22 09:08:53;;;;;;;4.57;1.73;;;;;;;22.27;41.21;97988.00;5062977;28;20410;-62
2022/08/22 09:11:56;;;;;;;4.95;1.48;;;;;;;22.36;40.30;97979.31;5058814;28;20421;-61
2022/08/22 09:14:41;;;;;;;5.37;1.57;;;;;;;22.61;41.02;97993.28;5059685;28;20807;-61
2022/08/22 09:17:37;;;;;;;4.43;1.60;;;;;;;22.52;40.03;97993.63;5046765;28;20465;-63
2022/08/22 09:20:30;;;;;;;4.15;1.50;;;;;;;22.52;38.99;97995.63;5059792;28;20420;-61
2022/08/22 09:23:36;;;;;;;3.40;1.40;;;;;;;22.42;39.49;97995.16;5062026;28;20430;-62
2022/08/22 09:29:16;;;;;;;3.90;1.83;;;;;;;22.64;39.84;98000.84;5062959;28;20415;-61
2022/08/22 09:31:53;;;;;;;5.00;1.85;;;;;;;22.65;41.22;97986.59;5059127;28;20431;-62
2022/08/22 09:34:32;;;;;;;4.00;1.60;;;;;;;22.70;40.46;97999.28;5044885;28;20399;-62
2022/08/22 09:37:10;;;;;;;4.90;1.55;;;;;;;22.34;39.08;97990.78;5066319;28;20420;-62
2022/08/22 09:39:51;;;;;;;3.83;1.63;;;;;;;22.37;39.88;97987.25;5060239;28;20417;-62
2022/08/22 09:42:30;;;;;;;2.60;1.40;;;;;;;22.39;39.90;97990.41;5045769;28;20425;-67
2022/08/22 09:45:36;;;;;;;6.28;1.90;;;;;;;22.34;41.16;97992.75;5063398;28;20815;-66
2022/08/22 09:48:13;;;;;;;3.25;1.50;;;;;;;22.11;42.08;97990.28;5059449;28;20413;-62
2022/08/22 09:50:48;;;;;;;4.60;1.88;;;;;;;22.27;41.69;97999.06;5067625;28;20597;-62
2022/08/22 09:53:46;;;;;;;4.90;1.80;;;;;;;22.37;42.76;97992.78;5062804;28;20443;-61
2022/08/22 09:56:20;;;;;;;6.13;1.95;;;;;;;22.41;43.46;97998.31;5064034;28;20519;-62
2022/08/22 09:59:00;;;;;;;6.40;1.80;;;;;;;22.32;42.23;98001.47;5066557;28;20422;-61
2022/08/22 10:01:34;;;;;;;5.40;1.77;;;;;;;22.28;42.13;97992.34;5043580;28;20427;-62
2022/08/22 10:04:23;;;;;;;3.58;1.63;;;;;;;22.47;43.11;97997.56;5064582;28;20418;-62
2022/08/22 10:07:01;;;;;;;5.70;1.60;;;;;;;22.48;42.38;97987.31;5058130;28;20419;-62
2022/08/22 10:09:36;;;;;;;5.03;1.80;;;;;;;22.53;42.39;97988.88;5044783;28;20882;-66
2022/08/22 10:12:08;;;;;;;3.92;2.00;;;;;;;22.79;42.86;97988.59;5041808;28;20907;-62
2022/08/22 10:14:50;;;;;;;4.20;1.80;;;;;;;22.89;41.54;97985.09;5047807;28;20887;-62
2022/08/22 10:17:19;;;;;;;5.10;1.83;;;;;;;22.96;40.59;97985.16;5058502;28;20413;-62
2022/08/22 10:19:54;;;;;;;5.70;1.50;;;;;;;23.06;40.90;97991.09;5048192;28;20400;-61
2022/08/22 10:22:34;;;;;;;7.22;1.70;;;;;;;23.05;39.22;97992.28;5062341;28;20431;-62
2022/08/22 10:25:22;;;;;;;3.80;1.58;;;;;;;23.07;37.00;98003.78;5046546;28;20412;-61
2022/08/22 10:27:56;;;;;;;5.15;1.30;;;;;;;23.19;38.41;97997.88;5061584;28;20417;-61
2022/08/22 10:30:33;;;;;;;4.30;1.48;;;;;;;22.93;37.30;97996.22;5067978;28;20415;-62
2022/08/22 10:33:13;;;;;;;4.93;1.27;;;;;;;22.80;37.19;98004.06;5066673;28;20411;-62
2022/08/22 10:35:58;;;;;;;5.60;1.73;;;;;;;22.99;37.55;98005.72;5069673;28;20415;-62
2022/08/22 10:38:34;;;;;;;;;;;;;;;23.05;38.14;98006.13;5067837;28;20894;-61
2022/08/22 10:41:13;;;;;;;;;;;;;;;23.14;37.56;98006.56;5051967;28;19924;-63
2022/08/22 10:43:44;;;;;;;;;;;;;;;23.29;36.72;98012.94;5067309;28;19924;-62
2022/08/22 10:46:13;;;;;;;;;;;;;;;23.19;36.49;98008.94;5068665;28;19920;-62
2022/08/22 10:48:43;;;;;;;;;;;;;;;23.22;36.50;98008.16;5068421;28;19920;-61
2022/08/22 10:51:16;;;;;;;;;;;;;;;23.39;37.29;98006.63;5069788;28;20015;-62
2022/08/22 10:54:16;;;;;;;;;;;;;;;23.53;37.38;98003.84;5051900;28;20288;-62
2022/08/22 10:57:22;;;;;;;;;;;;;;;23.49;37.25;98005.84;5002014;28;20015;-62
2022/08/22 10:59:52;;;;;;;;;;;;;;;23.64;37.56;98001.91;5066271;28;20394;-61
2022/08/22 11:02:37;;;;;;;4.30;1.42;;;;;;;23.66;37.12;97995.97;5068362;28;20424;-61
2022/08/22 11:05:26;;;;;;;;;;;;;;;23.68;37.18;97990.81;5065701;28;20419;-62
2022/08/22 11:08:46;;;;;;;3.25;1.40;;;;;;;23.82;37.50;97993.59;5066428;28;20750;-62
2022/08/22 11:11:25;;;;;;;4.28;1.55;;;;;;;24.01;38.00;97987.59;5030994;28;20413;-62
2022/08/22 11:14:19;;;;;;;3.50;1.50;;;;;;;23.87;37.68;97993.19;5065154;28;21609;-61
2022/08/22 11:16:57;;;;;;;3.20;1.30;;;;;;;23.86;35.93;97990.78;5051171;28;20441;-62
2022/08/22 11:19:41;;;;;;;3.90;1.20;;;;;;;23.61;36.31;97990.78;5068902;28;20419;-62
2022/08/22 11:22:26;;;;;;;4.10;1.60;;;;;;;23.88;35.97;97986.44;5067682;28;20903;-63
2022/08/22 11:25:26;;;;;;;3.42;1.17;;;;;;;23.65;34.94;97981.31;5064722;28;20464;-62
2022/08/22 11:28:16;;;;;;;;;;;;;;;23.68;36.07;97988.03;5063768;28;20781;-62
2022/08/22 11:30:47;;;;;;;;;;;;;;;23.40;36.33;97975.72;5067932;28;19921;-62
2022/08/22 11:33:21;;;;;;;;;;;;;;;23.35;36.31;97973.34;5068726;28;19920;-61
2022/08/22 11:36:01;;;;;;;;;;;;;;;23.10;35.58;97973.28;5069110;28;19974;-61
2022/08/22 11:38:34;;;;;;;;;;;;;;;23.12;35.42;97970.16;5069713;28;19928;-62
2022/08/22 11:41:04;;;;;;;;;;;;;;;23.29;34.52;97963.84;5066214;28;20211;-61
2022/08/22 11:43:36;;;;;;;;;;;;;;;23.42;34.42;97951.16;5070153;28;19920;-62
2022/08/22 11:46:21;;;;;;;2.88;1.30;;;;;;;23.72;35.29;97950.00;5063801;28;19927;-62
2022/08/22 11:48:57;;;;;;;;;;;;;;;23.91;34.20;97944.03;5062393;28;20764;-61
2022/08/22 11:51:34;;;;;;;;;;;;;;;24.12;34.83;97943.19;5064431;28;19920;-61
2022/08/22 11:54:03;;;;;;;;;;;;;;;24.08;34.70;97938.84;5066010;28;20438;-62
2022/08/22 11:56:33;;;;;;;;;;;;;;;24.11;33.82;97938.03;5052049;28;19927;-61
2022/08/22 11:59:01;;;;;;;;;;;;;;;24.30;34.39;97932.84;5066085;28;19921;-61
2022/08/22 12:01:33;;;;;;;;;;;;;;;24.05;34.24;97937.66;5068595;28;19920;-62
2022/08/22 12:04:04;;;;;;;;;;;;;;;24.10;34.80;97934.47;5050357;28;19928;-62
2022/08/22 12:06:38;;;;;;;;;;;;;;;23.95;34.00;97922.63;5047801;28;19965;-62
2022/08/22 12:09:13;;;;;;;;;;;;;;;23.94;35.54;97926.59;5064652;28;19920;-64
2022/08/22 12:11:44;;;;;;;;;;;;;;;24.19;34.41;97931.28;5068014;28;19993;-62
2022/08/22 12:14:18;;;;;;;;;;;;;;;24.25;34.93;97929.69;5066226;28;20445;-62
2022/08/22 12:16:51;;;;;;;;;;;;;;;24.38;35.04;97928.06;5040587;28;19920;-62
2022/08/22 12:19:20;;;;;;;;;;;;;;;24.12;35.92;97926.53;5065929;28;19951;-61
2022/08/22 12:22:03;;;;;;;;;;;;;;;24.31;35.31;97914.19;5041323;28;20291;-61
2022/08/22 12:27:45;;;;;;;;;;;;;;;24.00;36.56;97913.88;5060118;28;19927;-61
2022/08/22 12:30:42;;;;;;;;;;;;;;;23.97;37.23;97900.81;5062746;28;19929;-61
2022/08/22 12:33:28;;;;;;;;;;;;;;;23.95;36.72;97903.19;5067544;28;19951;-62
2022/08/22 12:36:26;;;;;;;;;;;;;;;24.19;35.88;97892.44;5051025;28;20073;-62
2022/08/22 12:39:00;;;;;;;;;;;;;;;24.24;34.48;97900.34;4984266;28;19938;-62
2022/08/22 12:41:38;;;;;;;;;;;;;;;24.39;33.99;97890.78;5021019;28;20377;-61
2022/08/22 12:44:15;;;;;;;;;;;;;;;24.61;34.13;97897.03;5043979;28;19921;-62
2022/08/22 12:46:47;;;;;;;;;;;;;;;24.27;33.95;97889.22;5035832;28;19929;-62
2022/08/22 12:49:28;;;;;;;;;;;;;;;24.41;33.32;97904.28;5017266;28;19946;-61
2022/08/22 12:52:00;;;;;;;;;;;;;;;24.25;34.13;97890.81;5012893;28;20318;-62
2022/08/22 12:54:46;;;;;;;;;;;;;;;23.99;34.03;97884.56;5042506;28;19925;-62
2022/08/22 12:57:16;;;;;;;;;;;;;;;24.33;33.82;97886.81;5037264;28;20295;-62
2022/08/22 12:59:52;;;;;;;;;;;;;;;24.42;34.82;97881.66;5038288;28;19934;-61
2022/08/22 13:02:24;;;;;;;;;;;;;;;24.52;34.08;97878.03;5025079;28;20016;-62
2022/08/22 13:04:53;;;;;;;;;;;;;;;24.74;33.43;97878.69;5023230;28;19921;-61
2022/08/22 13:07:23;;;;;;;;;;;;;;;24.73;34.45;97871.56;5024861;28;20387;-62
2022/08/22 13:09:51;;;;;;;;;;;;;;;24.38;33.75;97878.09;5023480;28;19928;-62
2022/08/22 13:12:24;;;;;;;;;;;;;;;24.61;34.18;97876.78;5029931;28;19928;-62
2022/08/22 13:14:53;;;;;;;;;;;;;;;24.55;33.38;97881.97;5026634;28;19932;-61
2022/08/22 13:17:21;;;;;;;2.80;1.45;;;;;;;24.75;34.27;97873.94;5024118;28;19971;-62
2022/08/22 13:19:57;;;;;;;;;;;;;;;24.66;34.11;97871.63;5024590;28;20415;-61
2022/08/22 13:22:29;;;;;;;;;;;;;;;24.64;33.95;97873.19;5024991;28;19921;-62
2022/08/22 13:24:58;;;;;;;;;;;;;;;24.57;33.17;97874.03;5024262;28;19922;-61
2022/08/22 13:27:27;;;;;;;;;;;;;;;24.36;34.28;97877.72;5028501;28;19921;-62